Time;durP1;ratioP1;P1;durP2;ratioP2;P2;SDS_P1;SDS_P2;PMS_P1;PMS_P2;Temp;Humidity;BMP_temperature;BMP_pressure;BME280_temperature;BME280_humidity;BME280_pressure;Samples;Min_cycle;Max_cycle;Signal;HPM_P1;HPM_P2
2022/01/10 00:00:16;;;;;;;195.40;92.22;;;;;;;;;;5037177;28;20048;-83
2022/01/10 00:02:44;;;;;;;202.20;99.25;;;;;;;;;;5033064;28;20515;-84
2022/01/10 00:05:10;;;;;;;201.55;98.05;;;;;;;;;;5033240;28;20029;-84
2022/01/10 00:07:37;;;;;;;193.60;89.18;;;;;;;;;;5033056;28;20112;-82
2022/01/10 00:10:06;;;;;;;224.25;97.22;;;;;;;;;;5031098;28;20026;-83
2022/01/10 00:12:33;;;;;;;189.60;89.10;;;;;;;;;;5032649;28;20061;-81
2022/01/10 00:14:59;;;;;;;201.88;92.10;;;;;;;;;;5032676;28;20542;-82
2022/01/10 00:17:25;;;;;;;188.40;87.97;;;;;;;;;;5032198;28;20036;-84
2022/01/10 00:19:52;;;;;;;198.57;89.28;;;;;;;;;;5032618;28;20017;-83
2022/01/10 00:22:19;;;;;;;189.48;89.85;;;;;;;;;;5033281;28;20127;-82
2022/01/10 00:24:46;;;;;;;186.25;86.00;;;;;;;;;;5031830;28;20065;-82
2022/01/10 00:27:14;;;;;;;184.65;83.75;;;;;;;;;;5015255;28;20068;-83
2022/01/10 00:29:41;;;;;;;189.63;87.82;;;;;;;;;;5032694;28;20101;-82
2022/01/10 00:32:07;;;;;;;206.68;95.88;;;;;;;;;;5032862;28;20029;-83
2022/01/10 00:34:33;;;;;;;189.45;88.82;;;;;;;;;;5032923;28;20029;-83
2022/01/10 00:37:00;;;;;;;198.32;92.63;;;;;;;;;;5014894;28;20037;-82
2022/01/10 00:39:26;;;;;;;189.15;86.10;;;;;;;;;;5014506;28;20044;-82
2022/01/10 00:41:55;;;;;;;190.20;85.32;;;;;;;;;;5027599;28;20081;-82
2022/01/10 00:44:26;;;;;;;198.88;85.68;;;;;;;;;;5032389;28;20033;-83
2022/01/10 00:46:52;;;;;;;201.13;84.60;;;;;;;;;;5032618;28;20048;-83
2022/01/10 00:49:19;;;;;;;190.75;84.93;;;;;;;;;;5034489;28;20029;-82
2022/01/10 00:51:45;;;;;;;206.10;87.90;;;;;;;;;;5036692;28;20030;-83
2022/01/10 00:54:11;;;;;;;197.57;87.70;;;;;;;;;;5036644;28;20025;-83
2022/01/10 00:56:38;;;;;;;201.27;87.63;;;;;;;;;;5036629;28;20057;-83
2022/01/10 00:59:04;;;;;;;189.80;87.30;;;;;;;;;;5035091;28;20447;-83
2022/01/10 01:01:30;;;;;;;190.10;89.63;;;;;;;;;;5034012;28;20036;-82
2022/01/10 01:03:56;;;;;;;187.25;85.00;;;;;;;;;;5032059;28;20080;-82
2022/01/10 01:06:23;;;;;;;203.23;87.57;;;;;;;;;;5032370;28;20037;-81
2022/01/10 01:08:49;;;;;;;203.48;90.18;;;;;;;;;;5033919;28;20116;-82
2022/01/10 01:14:04;;;;;;;203.55;93.40;;;;;;;;;;5033979;28;20526;-82
2022/01/10 01:16:42;;;;;;;203.73;89.88;;;;;;;;;;5030132;28;20029;-83
2022/01/10 01:24:31;;;;;;;191.23;86.28;;;;;;;;;;5034755;28;20051;-81
2022/01/10 01:26:58;;;;;;;217.30;93.18;;;;;;;;;;5042713;28;20073;-84
2022/01/10 01:29:25;;;;;;;205.90;90.55;;;;;;;;;;5038692;28;20037;-82
2022/01/10 01:31:52;;;;;;;219.05;95.03;;;;;;;;;;5017492;28;20021;-84
2022/01/10 01:34:20;;;;;;;197.98;91.00;;;;;;;;;;5045970;28;20113;-83
2022/01/10 01:36:50;;;;;;;205.98;90.80;;;;;;;;;;5045501;28;20045;-84
2022/01/10 01:39:21;;;;;;;213.25;94.35;;;;;;;;;;5041380;28;20034;-81
2022/01/10 01:41:54;;;;;;;220.50;95.60;;;;;;;;;;5044512;28;20365;-84
2022/01/10 01:44:21;;;;;;;228.82;99.35;;;;;;;;;;5034894;28;20065;-83
2022/01/10 01:46:47;;;;;;;206.05;92.72;;;;;;;;;;5016780;28;20493;-84
2022/01/10 01:49:14;;;;;;;222.15;96.00;;;;;;;;;;5043848;28;20037;-83
2022/01/10 01:51:40;;;;;;;207.60;90.35;;;;;;;;;;5034180;28;20080;-81
2022/01/10 01:54:09;;;;;;;194.20;87.03;;;;;;;;;;5036127;28;20040;-82
2022/01/10 01:56:36;;;;;;;192.93;87.50;;;;;;;;;;5017732;28;20029;-84
2022/01/10 01:59:03;;;;;;;200.88;92.90;;;;;;;;;;5035343;28;20029;-82
2022/01/10 02:01:30;;;;;;;196.00;93.47;;;;;;;;;;5016395;28;20338;-82
2022/01/10 02:03:56;;;;;;;212.70;99.55;;;;;;;;;;5035023;28;20108;-81
2022/01/10 02:06:22;;;;;;;208.43;95.57;;;;;;;;;;5015590;28;20037;-83
2022/01/10 02:08:50;;;;;;;210.10;98.88;;;;;;;;;;5031853;28;20120;-83
2022/01/10 02:11:16;;;;;;;209.00;97.65;;;;;;;;;;5035356;28;20033;-83
2022/01/10 02:13:44;;;;;;;213.50;99.70;;;;;;;;;;5032119;28;20032;-82
2022/01/10 02:16:15;;;;;;;238.27;105.80;;;;;;;;;;5032195;28;20022;-80
2022/01/10 02:18:41;;;;;;;202.77;99.15;;;;;;;;;;5038696;28;20030;-82
2022/01/10 02:21:09;;;;;;;209.00;97.13;;;;;;;;;;5036805;28;20061;-84
2022/01/10 02:23:37;;;;;;;211.02;97.53;;;;;;;;;;5016868;28;20126;-84
2022/01/10 02:26:03;;;;;;;215.18;97.90;;;;;;;;;;5015380;28;20033;-82
2022/01/10 02:28:32;;;;;;;221.93;97.78;;;;;;;;;;5034201;28;20041;-82
2022/01/10 02:30:58;;;;;;;211.52;96.55;;;;;;;;;;5031824;28;20026;-81
2022/01/10 02:33:26;;;;;;;211.25;97.82;;;;;;;;;;5037451;28;20025;-84
2022/01/10 02:36:06;;;;;;;216.13;95.78;;;;;;;;;;5034914;28;20086;-82
2022/01/10 02:38:32;;;;;;;206.15;91.22;;;;;;;;;;5030046;28;20025;-84
2022/01/10 02:40:59;;;;;;;205.07;94.35;;;;;;;;;;5009419;28;20534;-84
2022/01/10 02:43:26;;;;;;;200.88;94.45;;;;;;;;;;5025374;28;20439;-85
2022/01/10 02:45:52;;;;;;;202.70;91.63;;;;;;;;;;5024433;28;20292;-84
2022/01/10 02:48:18;;;;;;;225.88;100.15;;;;;;;;;;5006736;28;20041;-82
2022/01/10 02:50:45;;;;;;;200.52;90.72;;;;;;;;;;5024411;28;20018;-83
2022/01/10 02:53:12;;;;;;;204.63;94.65;;;;;;;;;;5028375;28;20472;-84
2022/01/10 02:55:39;;;;;;;209.30;94.68;;;;;;;;;;5006182;28;20025;-83
2022/01/10 02:58:05;;;;;;;202.48;94.55;;;;;;;;;;5014259;28;20123;-82
2022/01/10 03:00:32;;;;;;;202.68;94.78;;;;;;;;;;5042977;28;20040;-83
2022/01/10 03:02:59;;;;;;;199.10;92.32;;;;;;;;;;5044407;28;20029;-81
2022/01/10 03:05:26;;;;;;;202.68;92.13;;;;;;;;;;5024242;28;20038;-83
2022/01/10 03:07:53;;;;;;;166.15;77.55;;;;;;;;;;5013999;28;20067;-82
2022/01/10 03:10:19;;;;;;;174.60;77.80;;;;;;;;;;5019383;28;20029;-82
2022/01/10 03:12:46;;;;;;;167.65;74.82;;;;;;;;;;5023841;28;20108;-84
2022/01/10 03:15:13;;;;;;;155.63;70.15;;;;;;;;;;5014582;28;20079;-85
2022/01/10 03:17:39;;;;;;;147.43;69.45;;;;;;;;;;5027809;28;20042;-84
2022/01/10 03:20:08;;;;;;;151.27;68.10;;;;;;;;;;5022203;28;20048;-84
2022/01/10 03:22:34;;;;;;;137.70;62.30;;;;;;;;;;5010474;28;20374;-85
2022/01/10 03:25:02;;;;;;;129.85;55.25;;;;;;;;;;5014729;28;20029;-85
2022/01/10 03:27:28;;;;;;;135.73;60.45;;;;;;;;;;5020072;28;20061;-84
2022/01/10 03:29:54;;;;;;;131.13;57.38;;;;;;;;;;5023617;28;20095;-82
2022/01/10 03:32:21;;;;;;;121.60;56.17;;;;;;;;;;5022280;28;20025;-85
2022/01/10 03:34:47;;;;;;;130.57;52.90;;;;;;;;;;5024234;28;20029;-85
2022/01/10 03:37:14;;;;;;;125.30;52.17;;;;;;;;;;5004669;28;20026;-86
2022/01/10 03:39:40;;;;;;;124.13;52.63;;;;;;;;;;5031445;28;20029;-83
2022/01/10 03:42:06;;;;;;;112.50;49.90;;;;;;;;;;5011564;28;20033;-84
2022/01/10 03:44:32;;;;;;;120.80;51.33;;;;;;;;;;5029013;28;20045;-84
2022/01/10 03:46:59;;;;;;;106.60;49.53;;;;;;;;;;5023410;28;20109;-83
2022/01/10 03:49:26;;;;;;;110.82;50.75;;;;;;;;;;5025374;28;20118;-83
2022/01/10 03:51:52;;;;;;;110.85;50.20;;;;;;;;;;5006834;28;20484;-85
2022/01/10 03:54:19;;;;;;;115.28;52.45;;;;;;;;;;5009275;28;20485;-83
2022/01/10 03:56:47;;;;;;;112.18;49.63;;;;;;;;;;5005447;28;20029;-84
2022/01/10 03:59:13;;;;;;;109.70;48.13;;;;;;;;;;5026741;28;20052;-84
2022/01/10 04:01:40;;;;;;;108.45;50.97;;;;;;;;;;5025896;28;20068;-83
2022/01/10 04:04:09;;;;;;;111.70;50.63;;;;;;;;;;5009167;28;20079;-84
2022/01/10 04:06:35;;;;;;;114.20;50.40;;;;;;;;;;5026230;28;20041;-85
2022/01/10 04:09:03;;;;;;;113.10;50.10;;;;;;;;;;5005369;28;20087;-82
2022/01/10 04:11:29;;;;;;;118.88;52.35;;;;;;;;;;5012080;28;20021;-85
2022/01/10 04:13:55;;;;;;;110.18;51.20;;;;;;;;;;5029686;28;20362;-83
2022/01/10 04:16:22;;;;;;;122.32;51.30;;;;;;;;;;5028604;28;20077;-85
2022/01/10 04:18:48;;;;;;;123.90;50.35;;;;;;;;;;5000357;28;20087;-83
2022/01/10 04:21:14;;;;;;;125.72;51.35;;;;;;;;;;5010859;28;20064;-84
2022/01/10 04:23:40;;;;;;;200.70;96.35;;;;;;;;;;5028487;28;20369;-83
2022/01/10 04:26:07;;;;;;;196.25;99.32;;;;;;;;;;5032053;28;20033;-85
2022/01/10 04:28:33;;;;;;;196.70;94.13;;;;;;;;;;5032225;28;20030;-82
2022/01/10 04:30:59;;;;;;;204.63;99.00;;;;;;;;;;5030219;28;20142;-83
2022/01/10 04:33:29;;;;;;;203.73;96.93;;;;;;;;;;5036009;28;20029;-82
2022/01/10 04:35:56;;;;;;;196.85;96.20;;;;;;;;;;5018541;28;20044;-82
2022/01/10 04:38:22;;;;;;;210.27;102.68;;;;;;;;;;5039165;28;20033;-85
2022/01/10 04:40:49;;;;;;;212.30;101.57;;;;;;;;;;5016179;28;20029;-83
2022/01/10 04:43:15;;;;;;;219.75;106.47;;;;;;;;;;4999247;28;20037;-84
2022/01/10 04:45:42;;;;;;;221.90;107.65;;;;;;;;;;5039206;28;20090;-84
2022/01/10 04:48:09;;;;;;;214.43;109.47;;;;;;;;;;5034411;28;20030;-82
2022/01/10 04:51:10;;;;;;;222.20;112.30;;;;;;;;;;5020914;28;20037;-87
2022/01/10 04:53:25;;;;;;;215.43;101.80;;;;;;;;;;5037651;28;20044;-86
2022/01/10 04:55:51;;;;;;;210.52;100.50;;;;;;;;;;5034679;28;20029;-83
2022/01/10 04:58:18;;;;;;;197.32;94.97;;;;;;;;;;5034869;28;20033;-85
2022/01/10 05:00:45;;;;;;;184.98;90.70;;;;;;;;;;5016312;28;20088;-83
2022/01/10 05:03:12;;;;;;;182.80;86.20;;;;;;;;;;5029303;28;20063;-82
2022/01/10 05:05:38;;;;;;;195.80;95.95;;;;;;;;;;5014191;28;20064;-85
2022/01/10 05:08:05;;;;;;;188.30;91.70;;;;;;;;;;5030017;28;20025;-84
2022/01/10 05:10:31;;;;;;;191.38;93.55;;;;;;;;;;5029537;28;20052;-82
2022/01/10 05:12:57;;;;;;;198.57;98.78;;;;;;;;;;5012231;28;20053;-85
2022/01/10 05:15:24;;;;;;;217.57;102.82;;;;;;;;;;5028217;28;20034;-84
2022/01/10 05:17:50;;;;;;;208.13;101.72;;;;;;;;;;5029361;28;20400;-83
2022/01/10 05:20:16;;;;;;;185.90;89.45;;;;;;;;;;5029088;28;20039;-81
2022/01/10 05:22:42;;;;;;;201.75;99.50;;;;;;;;;;5030145;28;20057;-82
2022/01/10 05:25:09;;;;;;;192.73;94.00;;;;;;;;;;5027216;28;20040;-83
2022/01/10 05:27:35;;;;;;;178.95;86.80;;;;;;;;;;5026980;28;20034;-83
2022/01/10 05:30:02;;;;;;;184.48;86.93;;;;;;;;;;5006246;28;20037;-83
2022/01/10 05:32:28;;;;;;;183.82;83.78;;;;;;;;;;5022247;28;20566;-84
2022/01/10 05:34:54;;;;;;;187.05;86.28;;;;;;;;;;5021679;28;20056;-84
2022/01/10 05:37:20;;;;;;;191.80;93.00;;;;;;;;;;5024281;28;20034;-83
2022/01/10 05:39:47;;;;;;;190.38;91.80;;;;;;;;;;5023927;28;20543;-84
2022/01/10 05:42:14;;;;;;;200.65;95.43;;;;;;;;;;5026049;28;20025;-84
2022/01/10 05:44:41;;;;;;;205.98;101.90;;;;;;;;;;5025251;28;20116;-84
2022/01/10 05:47:07;;;;;;;188.82;90.72;;;;;;;;;;5009641;28;20037;-84
2022/01/10 05:49:35;;;;;;;173.27;84.95;;;;;;;;;;5027243;28;20052;-84
2022/01/10 05:52:02;;;;;;;168.52;82.53;;;;;;;;;;5032129;28;20037;-84
2022/01/10 05:54:28;;;;;;;171.68;81.85;;;;;;;;;;5030166;28;20029;-84
2022/01/10 05:56:54;;;;;;;182.18;87.75;;;;;;;;;;5006598;28;20030;-84
2022/01/10 05:59:21;;;;;;;188.85;91.45;;;;;;;;;;5026983;28;20037;-85
2022/01/10 06:01:47;;;;;;;169.50;84.55;;;;;;;;;;5030816;28;20033;-86
2022/01/10 06:04:13;;;;;;;187.20;91.55;;;;;;;;;;5025290;28;20036;-84
2022/01/10 06:06:40;;;;;;;197.13;94.82;;;;;;;;;;5024782;28;20061;-86
2022/01/10 06:09:06;;;;;;;187.57;93.93;;;;;;;;;;5025065;28;20088;-81
2022/01/10 06:11:34;;;;;;;201.27;93.82;;;;;;;;;;5025728;28;20029;-85
2022/01/10 06:14:00;;;;;;;202.20;95.10;;;;;;;;;;5025993;28;20029;-83
2022/01/10 06:16:28;;;;;;;205.55;96.63;;;;;;;;;;5013993;28;20118;-86
2022/01/10 06:18:55;;;;;;;197.40;93.00;;;;;;;;;;5031902;28;20025;-87
2022/01/10 06:21:21;;;;;;;200.60;98.32;;;;;;;;;;5025083;28;20072;-85
2022/01/10 06:23:47;;;;;;;189.40;93.03;;;;;;;;;;5028205;28;20037;-85
2022/01/10 06:26:14;;;;;;;182.65;88.25;;;;;;;;;;5013052;28;20040;-83
2022/01/10 06:28:40;;;;;;;195.45;88.63;;;;;;;;;;5029285;28;20030;-85
2022/01/10 06:31:06;;;;;;;188.45;91.03;;;;;;;;;;5015175;28;20400;-85
2022/01/10 06:33:33;;;;;;;202.00;97.32;;;;;;;;;;5028766;28;20029;-84
2022/01/10 06:35:59;;;;;;;200.05;97.13;;;;;;;;;;5027103;28;20456;-85
2022/01/10 06:38:27;;;;;;;196.65;90.95;;;;;;;;;;5025869;28;20026;-84
2022/01/10 06:40:54;;;;;;;189.40;92.88;;;;;;;;;;5032655;28;20108;-85
2022/01/10 06:43:20;;;;;;;187.05;95.72;;;;;;;;;;5032078;28;20106;-82
2022/01/10 06:45:46;;;;;;;207.52;98.00;;;;;;;;;;5008846;28;20037;-84
2022/01/10 06:48:18;;;;;;;202.40;97.13;;;;;;;;;;5025741;28;20037;-84
2022/01/10 06:50:47;;;;;;;193.85;98.10;;;;;;;;;;5009667;28;20488;-83
2022/01/10 06:53:18;;;;;;;188.55;94.00;;;;;;;;;;5027221;28;20144;-84
2022/01/10 06:55:44;;;;;;;196.77;95.18;;;;;;;;;;5020367;28;20695;-85
2022/01/10 06:58:10;;;;;;;198.95;98.20;;;;;;;;;;5018073;28;20036;-83
2022/01/10 07:00:37;;;;;;;191.05;98.18;;;;;;;;;;5006835;28;20135;-82
2022/01/10 07:03:04;;;;;;;205.27;100.03;;;;;;;;;;5006967;28;20200;-85
2022/01/10 07:05:30;;;;;;;204.40;98.22;;;;;;;;;;5028177;28;20053;-83
2022/01/10 07:07:56;;;;;;;202.65;102.25;;;;;;;;;;5018019;28;20120;-86
2022/01/10 07:10:23;;;;;;;204.02;99.05;;;;;;;;;;5018166;28;20041;-85
2022/01/10 07:12:49;;;;;;;214.02;102.32;;;;;;;;;;5022935;28;20033;-83
2022/01/10 07:15:16;;;;;;;217.40;105.72;;;;;;;;;;5028274;28;20044;-83
2022/01/10 07:17:42;;;;;;;201.43;105.15;;;;;;;;;;5030713;28;20064;-83
2022/01/10 07:20:09;;;;;;;214.65;108.60;;;;;;;;;;5025257;28;20022;-84
2022/01/10 07:22:35;;;;;;;226.18;108.85;;;;;;;;;;5024894;28;20045;-84
2022/01/10 07:25:01;;;;;;;208.85;103.25;;;;;;;;;;5027100;28;20091;-85
2022/01/10 07:27:28;;;;;;;207.55;102.53;;;;;;;;;;5008284;28;20049;-83
2022/01/10 07:29:54;;;;;;;209.10;106.18;;;;;;;;;;5030961;28;20055;-83
2022/01/10 07:32:20;;;;;;;201.70;102.75;;;;;;;;;;5015383;28;20025;-85
2022/01/10 07:34:47;;;;;;;203.13;103.50;;;;;;;;;;5008310;28;20037;-83
2022/01/10 07:37:15;;;;;;;165.57;81.90;;;;;;;;;;5024284;28;20071;-84
2022/01/10 07:39:42;;;;;;;163.48;76.45;;;;;;;;;;5005284;28;20473;-82
2022/01/10 07:42:08;;;;;;;152.60;70.40;;;;;;;;;;5007867;28;20037;-84
2022/01/10 07:44:35;;;;;;;141.38;66.45;;;;;;;;;;5022327;28;21218;-84
2022/01/10 07:47:01;;;;;;;148.02;68.80;;;;;;;;;;5025152;28;20412;-85
2022/01/10 07:49:27;;;;;;;147.43;69.15;;;;;;;;;;5029377;28;20113;-84
2022/01/10 07:51:57;;;;;;;146.65;69.22;;;;;;;;;;5026420;28;20108;-83
2022/01/10 07:54:24;;;;;;;148.73;68.88;;;;;;;;;;5012696;28;20056;-84
2022/01/10 07:56:51;;;;;;;132.85;63.10;;;;;;;;;;5028571;28;20071;-84
2022/01/10 07:59:17;;;;;;;128.20;63.83;;;;;;;;;;5037620;28;20034;-86
2022/01/10 08:01:45;;;;;;;138.93;67.25;;;;;;;;;;5010720;28;20435;-83
2022/01/10 08:04:12;;;;;;;137.25;66.90;;;;;;;;;;5029856;28;20048;-85
2022/01/10 08:06:39;;;;;;;137.85;64.28;;;;;;;;;;5024255;28;20445;-84
2022/01/10 08:09:06;;;;;;;131.52;66.28;;;;;;;;;;5007394;28;20303;-83
2022/01/10 08:11:32;;;;;;;137.93;63.60;;;;;;;;;;5023124;28;20061;-83
2022/01/10 08:14:00;;;;;;;141.73;64.03;;;;;;;;;;5018495;28;20037;-85
2022/01/10 08:16:27;;;;;;;130.57;63.45;;;;;;;;;;5022447;28;20531;-83
2022/01/10 08:18:53;;;;;;;139.90;65.75;;;;;;;;;;5024547;28;20026;-84
2022/01/10 08:21:20;;;;;;;133.55;64.35;;;;;;;;;;5002701;28;20065;-84
2022/01/10 08:23:46;;;;;;;129.45;65.88;;;;;;;;;;5019644;28;20040;-83
2022/01/10 08:26:12;;;;;;;140.43;64.45;;;;;;;;;;5032763;28;20511;-84
2022/01/10 08:28:39;;;;;;;131.70;63.40;;;;;;;;;;5019837;28;20040;-84
2022/01/10 08:31:06;;;;;;;144.93;65.55;;;;;;;;;;5024669;28;20120;-86
2022/01/10 08:33:32;;;;;;;130.13;64.47;;;;;;;;;;5036160;28;20028;-83
2022/01/10 08:35:59;;;;;;;138.60;65.85;;;;;;;;;;5030038;28;20025;-86
2022/01/10 08:38:25;;;;;;;163.70;80.95;;;;;;;;;;5011652;28;20068;-86
2022/01/10 08:40:52;;;;;;;145.00;71.40;;;;;;;;;;5030389;28;20465;-87
2022/01/10 08:43:20;;;;;;;150.45;73.65;;;;;;;;;;5028392;28;20345;-85
2022/01/10 08:45:47;;;;;;;155.20;73.32;;;;;;;;;;5026963;28;20029;-85
2022/01/10 08:48:14;;;;;;;142.13;68.28;;;;;;;;;;5007730;28;20034;-84
2022/01/10 08:50:40;;;;;;;143.00;69.30;;;;;;;;;;5028916;28;20053;-85
2022/01/10 08:53:08;;;;;;;129.00;65.22;;;;;;;;;;5008718;28;20485;-85
2022/01/10 08:55:34;;;;;;;148.57;70.45;;;;;;;;;;5005079;28;20017;-82
2022/01/10 08:58:01;;;;;;;147.73;68.57;;;;;;;;;;5022490;28;20112;-84
2022/01/10 09:00:29;;;;;;;150.02;70.35;;;;;;;;;;5023303;28;20037;-85
2022/01/10 09:02:55;;;;;;;139.52;65.93;;;;;;;;;;5029308;28;20033;-83
2022/01/10 09:05:21;;;;;;;141.63;68.97;;;;;;;;;;5029138;28;20124;-85
2022/01/10 09:07:48;;;;;;;142.70;68.47;;;;;;;;;;5020359;28;20135;-85
2022/01/10 09:10:15;;;;;;;145.70;65.90;;;;;;;;;;5001019;28;20033;-83
2022/01/10 09:12:41;;;;;;;133.38;61.90;;;;;;;;;;5007672;28;20038;-84
2022/01/10 09:15:09;;;;;;;138.93;64.28;;;;;;;;;;5022812;28;20040;-82
2022/01/10 09:17:35;;;;;;;129.65;64.78;;;;;;;;;;5006601;28;20607;-85
2022/01/10 09:20:02;;;;;;;135.98;64.80;;;;;;;;;;5010745;28;20030;-84
2022/01/10 09:22:28;;;;;;;139.70;64.18;;;;;;;;;;5028027;28;20069;-81
2022/01/10 09:24:55;;;;;;;136.15;64.40;;;;;;;;;;5036675;28;20491;-84
2022/01/10 09:27:21;;;;;;;137.65;63.88;;;;;;;;;;5028172;28;20111;-82
2022/01/10 09:29:49;;;;;;;138.57;65.85;;;;;;;;;;5012279;28;20036;-83
2022/01/10 09:32:17;;;;;;;136.63;66.43;;;;;;;;;;5027348;28;20191;-83
2022/01/10 09:34:44;;;;;;;140.95;64.20;;;;;;;;;;5025416;28;20391;-85
2022/01/10 09:37:10;;;;;;;130.10;62.58;;;;;;;;;;5035016;28;20152;-83
2022/01/10 09:39:37;;;;;;;134.77;62.97;;;;;;;;;;5034862;28;20048;-84
2022/01/10 09:42:03;;;;;;;144.98;67.32;;;;;;;;;;5035365;28;20424;-82
2022/01/10 09:44:30;;;;;;;141.25;65.45;;;;;;;;;;5015089;28;20124;-85
2022/01/10 09:46:56;;;;;;;147.75;65.57;;;;;;;;;;5028875;28;20033;-84
2022/01/10 09:49:22;;;;;;;148.23;64.78;;;;;;;;;;5028885;28;20057;-86
2022/01/10 09:51:49;;;;;;;132.35;63.78;;;;;;;;;;5014265;28;20030;-85
2022/01/10 09:54:15;;;;;;;134.30;65.70;;;;;;;;;;5012752;28;20044;-83
2022/01/10 09:56:42;;;;;;;138.77;65.13;;;;;;;;;;5028734;28;20108;-86
2022/01/10 09:59:08;;;;;;;134.25;65.00;;;;;;;;;;5031011;28;20073;-86
2022/01/10 10:01:35;;;;;;;133.88;66.13;;;;;;;;;;5014204;28;20579;-83
2022/01/10 10:04:02;;;;;;;138.77;61.85;;;;;;;;;;5030481;28;20029;-82
2022/01/10 10:06:30;;;;;;;143.85;66.15;;;;;;;;;;5025547;28;20037;-85
2022/01/10 10:09:00;;;;;;;132.00;65.28;;;;;;;;;;5027842;28;20152;-85
2022/01/10 10:11:40;;;;;;;131.07;62.38;;;;;;;;;;5028836;28;20067;-84
2022/01/10 10:14:07;;;;;;;138.82;64.53;;;;;;;;;;5026793;28;20026;-87
2022/01/10 10:16:36;;;;;;;131.30;59.83;;;;;;;;;;5031855;28;20075;-85
2022/01/10 10:19:03;;;;;;;130.82;63.28;;;;;;;;;;5028969;28;20129;-84
2022/01/10 10:21:31;;;;;;;124.05;61.22;;;;;;;;;;5024385;28;20045;-85
2022/01/10 10:23:57;;;;;;;126.20;59.20;;;;;;;;;;5029309;28;20539;-85
2022/01/10 10:26:25;;;;;;;123.03;63.03;;;;;;;;;;5030272;28;20080;-84
2022/01/10 10:28:53;;;;;;;116.45;57.75;;;;;;;;;;5027172;28;20035;-85
2022/01/10 10:31:27;;;;;;;97.93;52.47;;;;;;;;;;5010844;28;20026;-84
2022/01/10 10:33:54;;;;;;;110.43;55.10;;;;;;;;;;5011127;28;20125;-85
2022/01/10 10:36:21;;;;;;;113.05;59.42;;;;;;;;;;5011395;28;20378;-86
2022/01/10 10:38:48;;;;;;;111.90;54.85;;;;;;;;;;5027847;28;20116;-85
2022/01/10 10:41:14;;;;;;;111.43;57.08;;;;;;;;;;5029794;28;20061;-85
2022/01/10 10:43:41;;;;;;;121.80;56.67;;;;;;;;;;5029036;28;20112;-86
2022/01/10 10:46:36;;;;;;;118.93;58.80;;;;;;;;;;5029869;28;20422;-83
2022/01/10 10:49:05;;;;;;;112.18;55.90;;;;;;;;;;5016610;28;20041;-84
2022/01/10 10:51:33;;;;;;;112.95;56.03;;;;;;;;;;5028451;28;20029;-83
2022/01/10 10:54:07;;;;;;;119.07;58.63;;;;;;;;;;5024800;28;20029;-84
2022/01/10 10:56:38;;;;;;;112.68;53.20;;;;;;;;;;5028727;28;20021;-83
2022/01/10 10:59:06;;;;;;;106.30;56.17;;;;;;;;;;5027324;28;20069;-83
2022/01/10 11:01:32;;;;;;;105.63;55.80;;;;;;;;;;5008209;28;20025;-83
2022/01/10 11:03:58;;;;;;;113.95;59.47;;;;;;;;;;5010046;28;20063;-85
2022/01/10 11:06:28;;;;;;;115.93;56.80;;;;;;;;;;5029507;28;20037;-84
2022/01/10 11:08:54;;;;;;;110.82;55.88;;;;;;;;;;5026062;28;20071;-85
2022/01/10 11:11:21;;;;;;;108.55;56.15;;;;;;;;;;5024779;28;20033;-84
2022/01/10 11:13:48;;;;;;;112.18;56.88;;;;;;;;;;5025833;28;20520;-85
2022/01/10 11:16:15;;;;;;;114.00;59.45;;;;;;;;;;5024574;28;20107;-86
2022/01/10 11:18:41;;;;;;;122.05;60.22;;;;;;;;;;5013870;28;20037;-82
2022/01/10 11:21:07;;;;;;;109.15;54.53;;;;;;;;;;5007657;28;20053;-84
2022/01/10 11:23:43;;;;;;;119.20;60.42;;;;;;;;;;5008188;28;20369;-86
2022/01/10 11:26:10;;;;;;;114.32;59.05;;;;;;;;;;5022821;28;20084;-84
2022/01/10 11:28:46;;;;;;;113.78;58.05;;;;;;;;;;5024690;28;20033;-86
2022/01/10 11:31:18;;;;;;;114.68;58.83;;;;;;;;;;5023957;28;20029;-84
2022/01/10 11:33:44;;;;;;;104.45;56.85;;;;;;;;;;5025339;28;20033;-82
2022/01/10 11:36:10;;;;;;;109.95;57.83;;;;;;;;;;5024814;28;20056;-84
2022/01/10 11:38:41;;;;;;;102.40;55.63;;;;;;;;;;5027232;28;20065;-85
2022/01/10 11:41:15;;;;;;;104.88;55.72;;;;;;;;;;5011708;28;20033;-83
2022/01/10 11:43:42;;;;;;;108.45;56.97;;;;;;;;;;5032920;28;20389;-83
2022/01/10 11:46:23;;;;;;;100.13;54.58;;;;;;;;;;5024563;28;20029;-85
2022/01/10 11:48:51;;;;;;;114.88;57.35;;;;;;;;;;5022660;28;20120;-85
2022/01/10 11:51:19;;;;;;;108.90;55.83;;;;;;;;;;5026875;28;20087;-82
2022/01/10 11:53:46;;;;;;;107.45;55.42;;;;;;;;;;5007875;28;20072;-84
2022/01/10 11:56:25;;;;;;;105.75;57.08;;;;;;;;;;5024490;28;20052;-85
2022/01/10 11:59:10;;;;;;;114.38;59.60;;;;;;;;;;5007251;28;20040;-86
2022/01/10 12:01:39;;;;;;;107.22;57.10;;;;;;;;;;5029850;28;20499;-84
2022/01/10 12:04:05;;;;;;;104.90;56.63;;;;;;;;;;5032122;28;20029;-84
2022/01/10 12:06:32;;;;;;;106.97;57.25;;;;;;;;;;5031757;28;20103;-84
2022/01/10 12:08:58;;;;;;;107.38;56.30;;;;;;;;;;5024882;28;20030;-83
2022/01/10 12:11:28;;;;;;;108.35;55.67;;;;;;;;;;5027804;28;20061;-84
2022/01/10 12:13:55;;;;;;;104.53;54.72;;;;;;;;;;5024615;28;20025;-83
2022/01/10 12:16:22;;;;;;;99.53;55.28;;;;;;;;;;5023983;28;20033;-85
2022/01/10 12:18:49;;;;;;;98.30;54.88;;;;;;;;;;5032592;28;20179;-85
2022/01/10 12:21:15;;;;;;;102.32;54.22;;;;;;;;;;5019673;28;20061;-82
2022/01/10 12:23:42;;;;;;;97.88;52.47;;;;;;;;;;5027699;28;20030;-85
2022/01/10 12:26:09;;;;;;;105.43;59.22;;;;;;;;;;5032014;28;20048;-84
2022/01/10 12:28:35;;;;;;;112.15;60.58;;;;;;;;;;5008735;28;20565;-83
2022/01/10 12:31:02;;;;;;;105.53;55.83;;;;;;;;;;5025002;28;20033;-82
2022/01/10 12:33:29;;;;;;;102.57;57.03;;;;;;;;;;5021691;28;20113;-85
2022/01/10 12:35:55;;;;;;;101.80;54.55;;;;;;;;;;5025295;28;20084;-85
2022/01/10 12:38:22;;;;;;;105.55;56.40;;;;;;;;;;5010804;28;20034;-83
2022/01/10 12:40:49;;;;;;;106.50;55.92;;;;;;;;;;5029380;28;20083;-84
2022/01/10 12:43:16;;;;;;;111.25;56.60;;;;;;;;;;5027152;28;20036;-83
2022/01/10 12:45:42;;;;;;;105.35;56.47;;;;;;;;;;5029967;28;20036;-82
2022/01/10 12:48:11;;;;;;;108.60;58.35;;;;;;;;;;5023840;28;20580;-83
2022/01/10 12:50:37;;;;;;;101.15;53.30;;;;;;;;;;5009016;28;20357;-84
2022/01/10 12:53:04;;;;;;;106.93;56.65;;;;;;;;;;5034118;28;20014;-85
2022/01/10 12:55:30;;;;;;;106.70;58.25;;;;;;;;;;5013715;28;20439;-84
2022/01/10 12:57:56;;;;;;;104.57;59.35;;;;;;;;;;5028320;28;20476;-86
2022/01/10 13:00:23;;;;;;;101.85;55.53;;;;;;;;;;5036184;28;20025;-85
2022/01/10 13:02:49;;;;;;;104.90;56.92;;;;;;;;;;5035672;28;20049;-84
2022/01/10 13:05:17;;;;;;;102.40;54.97;;;;;;;;;;5035225;28;20033;-84
2022/01/10 13:07:44;;;;;;;101.40;52.15;;;;;;;;;;5036018;28;20026;-84
2022/01/10 13:10:18;;;;;;;86.88;47.70;;;;;;;;;;5037872;28;20056;-84
2022/01/10 13:12:54;;;;;;;92.95;50.08;;;;;;;;;;5040516;28;20021;-85
2022/01/10 13:15:21;;;;;;;86.70;47.03;;;;;;;;;;5008092;28;20040;-83
2022/01/10 13:17:55;;;;;;;85.85;44.72;;;;;;;;;;5025284;28;20034;-83
2022/01/10 13:20:22;;;;;;;82.03;43.70;;;;;;;;;;5013103;28;20029;-85
2022/01/10 13:22:49;;;;;;;95.10;49.03;;;;;;;;;;5032478;28;20243;-85
2022/01/10 13:25:17;;;;;;;90.28;48.47;;;;;;;;;;5016148;28;20502;-83
2022/01/10 13:27:51;;;;;;;92.88;50.10;;;;;;;;;;5007494;28;20414;-82
2022/01/10 13:30:20;;;;;;;95.40;48.15;;;;;;;;;;5027962;28;20538;-85
2022/01/10 13:32:47;;;;;;;91.72;48.70;;;;;;;;;;5025520;28;20610;-86
2022/01/10 13:35:17;;;;;;;93.50;49.58;;;;;;;;;;5012991;28;20027;-82
2022/01/10 13:37:45;;;;;;;103.70;52.00;;;;;;;;;;5030331;28;20026;-85
2022/01/10 13:40:13;;;;;;;95.10;49.70;;;;;;;;;;5034493;28;20128;-83
2022/01/10 13:42:39;;;;;;;100.00;52.90;;;;;;;;;;5011677;28;20033;-84
2022/01/10 13:45:06;;;;;;;91.53;47.55;;;;;;;;;;5018920;28;20469;-81
2022/01/10 13:47:48;;;;;;;97.93;52.17;;;;;;;;;;5036637;28;20022;-84
2022/01/10 13:50:21;;;;;;;93.15;47.67;;;;;;;;;;5033093;28;20029;-83
2022/01/10 13:53:04;;;;;;;93.35;49.15;;;;;;;;;;5016674;28;20026;-82
2022/01/10 13:55:31;;;;;;;97.18;48.88;;;;;;;;;;5008562;28;20053;-82
2022/01/10 13:57:57;;;;;;;99.88;50.72;;;;;;;;;;5030417;28;20030;-85
2022/01/10 14:00:23;;;;;;;98.35;50.53;;;;;;;;;;5029090;28;20029;-82
2022/01/10 14:02:51;;;;;;;94.90;49.75;;;;;;;;;;5029829;28;20105;-84
2022/01/10 14:05:24;;;;;;;102.65;50.80;;;;;;;;;;5023546;28;20034;-85
2022/01/10 14:07:52;;;;;;;96.18;52.08;;;;;;;;;;5027696;28;20060;-82
2022/01/10 14:10:18;;;;;;;99.38;51.10;;;;;;;;;;5028366;28;20384;-85
2022/01/10 14:12:45;;;;;;;101.28;55.33;;;;;;;;;;5003595;28;20080;-84